sensor_id;sensor_type;location;lat;lon;timestamp;temperature;humidity
25342;DHT22;13298;48.792;9.154;2023-04-01T00:00:48;7.20;99.90
25342;DHT22;13298;48.792;9.154;2023-04-01T00:03:13;7.20;99.90
25342;DHT22;13298;48.792;9.154;2023-04-01T00:05:39;7.10;99.90
25342;DHT22;13298;48.792;9.154;2023-04-01T00:08:05;7.10;99.90
25342;DHT22;13298;48.792;9.154;2023-04-01T00:10:31;7.20;99.90
25342;DHT22;13298;48.792;9.154;2023-04-01T00:12:56;7.20;99.90
25342;DHT22;13298;48.792;9.154;2023-04-01T00:15:22;7.30;99.90
25342;DHT22;13298;48.792;9.154;2023-04-01T00:17:48;7.30;99.90
25342;DHT22;13298;48.792;9.154;2023-04-01T00:20:15;7.30;99.90
25342;DHT22;13298;48.792;9.154;2023-04-01T00:22:40;7.40;99.90
25342;DHT22;13298;48.792;9.154;2023-04-01T00:25:07;7.50;99.90
25342;DHT22;13298;48.792;9.154;2023-04-01T00:27:33;7.50;99.90
25342;DHT22;13298;48.792;9.154;2023-04-01T00:29:58;7.50;99.90
25342;DHT22;13298;48.792;9.154;2023-04-01T00:32:24;7.50;99.90
25342;DHT22;13298;48.792;9.154;2023-04-01T00:34:51;7.40;99.90
25342;DHT22;13298;48.792;9.154;2023-04-01T00:37:18;7.40;99.90
25342;DHT22;13298;48.792;9.154;2023-04-01T00:39:46;7.40;99.90
25342;DHT22;13298;48.792;9.154;2023-04-01T00:42:12;7.30;99.90
25342;DHT22;13298;48.792;9.154;2023-04-01T00:44:39;7.30;99.90
25342;DHT22;13298;48.792;9.154;2023-04-01T00:47:06;7.30;99.90
25342;DHT22;13298;48.792;9.154;2023-04-01T00:49:36;7.40;99.90
25342;DHT22;13298;48.792;9.154;2023-04-01T00:52:06;7.50;99.90
25342;DHT22;13298;48.792;9.154;2023-04-01T00:54:34;7.60;99.90
25342;DHT22;13298;48.792;9.154;2023-04-01T00:57:08;7.70;99.90
25342;DHT22;13298;48.792;9.154;2023-04-01T00:59:42;7.70;99.90
25342;DHT22;13298;48.792;9.154;2023-04-01T01:02:12;7.80;99.90
25342;DHT22;13298;48.792;9.154;2023-04-01T01:04:38;7.80;99.90
25342;DHT22;13298;48.792;9.154;2023-04-01T01:07:20;7.80;99.90
25342;DHT22;13298;48.792;9.154;2023-04-01T01:10:15;7.80;99.90
25342;DHT22;13298;48.792;9.154;2023-04-01T01:15:53;7.70;99.90
25342;DHT22;13298;48.792;9.154;2023-04-01T01:18:34;7.70;99.90
25342;DHT22;13298;48.792;9.154;2023-04-01T01:26:53;7.60;99.90
25342;DHT22;13298;48.792;9.154;2023-04-01T01:38:28;7.60;99.90
25342;DHT22;13298;48.792;9.154;2023-04-01T01:44:28;7.70;99.90
25342;DHT22;13298;48.792;9.154;2023-04-01T01:46:56;7.70;99.90
25342;DHT22;13298;48.792;9.154;2023-04-01T01:49:23;7.70;99.90
25342;DHT22;13298;48.792;9.154;2023-04-01T01:51:49;7.70;99.90
25342;DHT22;13298;48.792;9.154;2023-04-01T01:54:16;7.80;99.90
25342;DHT22;13298;48.792;9.154;2023-04-01T01:56:46;7.80;99.90
25342;DHT22;13298;48.792;9.154;2023-04-01T01:59:15;7.80;99.90
25342;DHT22;13298;48.792;9.154;2023-04-01T02:01:48;7.70;99.90
25342;DHT22;13298;48.792;9.154;2023-04-01T02:04:15;7.70;99.90
25342;DHT22;13298;48.792;9.154;2023-04-01T02:06:47;7.70;99.90
25342;DHT22;13298;48.792;9.154;2023-04-01T02:09:18;7.70;99.90
25342;DHT22;13298;48.792;9.154;2023-04-01T02:12:00;7.70;99.90
25342;DHT22;13298;48.792;9.154;2023-04-01T02:17:12;7.60;99.90
25342;DHT22;13298;48.792;9.154;2023-04-01T02:22:24;7.60;99.90
25342;DHT22;13298;48.792;9.154;2023-04-01T02:24:54;7.60;99.90
25342;DHT22;13298;48.792;9.154;2023-04-01T02:27:23;7.60;99.90
25342;DHT22;13298;48.792;9.154;2023-04-01T02:29:50;7.60;99.90
25342;DHT22;13298;48.792;9.154;2023-04-01T02:32:17;7.60;99.90
25342;DHT22;13298;48.792;9.154;2023-04-01T02:34:45;7.60;99.90
25342;DHT22;13298;48.792;9.154;2023-04-01T02:37:13;7.60;99.90
25342;DHT22;13298;48.792;9.154;2023-04-01T02:39:39;7.50;99.90
25342;DHT22;13298;48.792;9.154;2023-04-01T02:42:06;7.40;99.90
25342;DHT22;13298;48.792;9.154;2023-04-01T02:44:31;7.40;99.90
25342;DHT22;13298;48.792;9.154;2023-04-01T02:46:57;7.30;99.90
25342;DHT22;13298;48.792;9.154;2023-04-01T02:49:23;7.20;99.90
25342;DHT22;13298;48.792;9.154;2023-04-01T02:51:49;7.20;99.90
25342;DHT22;13298;48.792;9.154;2023-04-01T02:54:14;7.10;99.90
25342;DHT22;13298;48.792;9.154;2023-04-01T02:56:40;7.10;99.90
25342;DHT22;13298;48.792;9.154;2023-04-01T02:59:06;7.10;99.90
25342;DHT22;13298;48.792;9.154;2023-04-01T03:01:32;7.10;99.90
25342;DHT22;13298;48.792;9.154;2023-04-01T03:03:57;7.10;99.90
25342;DHT22;13298;48.792;9.154;2023-04-01T03:06:23;7.10;99.90
25342;DHT22;13298;48.792;9.154;2023-04-01T03:08:49;7.20;99.90
25342;DHT22;13298;48.792;9.154;2023-04-01T03:11:14;7.20;99.90
25342;DHT22;13298;48.792;9.154;2023-04-01T03:13:40;7.30;99.90
25342;DHT22;13298;48.792;9.154;2023-04-01T03:16:06;7.30;99.90
25342;DHT22;13298;48.792;9.154;2023-04-01T03:18:32;7.30;99.90
25342;DHT22;13298;48.792;9.154;2023-04-01T03:21:15;7.30;99.90
25342;DHT22;13298;48.792;9.154;2023-04-01T03:23:45;7.30;99.90
25342;DHT22;13298;48.792;9.154;2023-04-01T03:26:11;7.20;99.90
25342;DHT22;13298;48.792;9.154;2023-04-01T03:28:37;7.10;99.90
25342;DHT22;13298;48.792;9.154;2023-04-01T03:31:02;7.00;99.90
25342;DHT22;13298;48.792;9.154;2023-04-01T03:33:28;7.00;99.90
25342;DHT22;13298;48.792;9.154;2023-04-01T03:35:54;6.90;99.90
25342;DHT22;13298;48.792;9.154;2023-04-01T03:38:20;7.00;99.90
25342;DHT22;13298;48.792;9.154;2023-04-01T03:40:45;7.00;99.90
25342;DHT22;13298;48.792;9.154;2023-04-01T03:43:11;7.00;99.90
25342;DHT22;13298;48.792;9.154;2023-04-01T03:45:50;7.00;99.90
25342;DHT22;13298;48.792;9.154;2023-04-01T03:48:16;7.00;99.90
25342;DHT22;13298;48.792;9.154;2023-04-01T03:50:43;7.00;99.90
25342;DHT22;13298;48.792;9.154;2023-04-01T03:53:09;7.00;99.90
25342;DHT22;13298;48.792;9.154;2023-04-01T03:55:37;7.00;99.90
25342;DHT22;13298;48.792;9.154;2023-04-01T03:58:05;7.00;99.90
25342;DHT22;13298;48.792;9.154;2023-04-01T04:00:31;7.00;99.90
25342;DHT22;13298;48.792;9.154;2023-04-01T04:02:57;6.90;99.90
25342;DHT22;13298;48.792;9.154;2023-04-01T04:05:24;6.90;99.90
25342;DHT22;13298;48.792;9.154;2023-04-01T04:07:50;6.80;99.90
25342;DHT22;13298;48.792;9.154;2023-04-01T04:10:16;6.80;99.90
25342;DHT22;13298;48.792;9.154;2023-04-01T04:12:42;6.80;99.90
25342;DHT22;13298;48.792;9.154;2023-04-01T04:15:08;6.80;99.90
25342;DHT22;13298;48.792;9.154;2023-04-01T04:17:34;6.80;99.90
25342;DHT22;13298;48.792;9.154;2023-04-01T04:20:00;6.90;99.90
25342;DHT22;13298;48.792;9.154;2023-04-01T04:22:26;7.00;99.90
25342;DHT22;13298;48.792;9.154;2023-04-01T04:24:52;7.00;99.90
25342;DHT22;13298;48.792;9.154;2023-04-01T04:27:18;7.00;99.90
25342;DHT22;13298;48.792;9.154;2023-04-01T04:29:43;6.90;99.90
25342;DHT22;13298;48.792;9.154;2023-04-01T04:32:09;6.80;99.90
25342;DHT22;13298;48.792;9.154;2023-04-01T04:34:35;6.70;99.90
25342;DHT22;13298;48.792;9.154;2023-04-01T04:37:01;6.70;99.90
25342;DHT22;13298;48.792;9.154;2023-04-01T04:39:26;6.60;99.90
25342;DHT22;13298;48.792;9.154;2023-04-01T04:41:52;6.50;99.90
25342;DHT22;13298;48.792;9.154;2023-04-01T04:44:18;6.50;99.90
25342;DHT22;13298;48.792;9.154;2023-04-01T04:46:43;6.60;99.90
25342;DHT22;13298;48.792;9.154;2023-04-01T04:49:09;6.60;99.90
25342;DHT22;13298;48.792;9.154;2023-04-01T04:51:35;6.60;99.90
25342;DHT22;13298;48.792;9.154;2023-04-01T04:54:04;6.50;99.90
25342;DHT22;13298;48.792;9.154;2023-04-01T04:56:31;6.50;99.90
25342;DHT22;13298;48.792;9.154;2023-04-01T04:58:58;6.60;99.90
25342;DHT22;13298;48.792;9.154;2023-04-01T05:01:24;6.60;99.90
25342;DHT22;13298;48.792;9.154;2023-04-01T05:03:50;6.60;99.90
25342;DHT22;13298;48.792;9.154;2023-04-01T05:06:17;6.60;99.90
25342;DHT22;13298;48.792;9.154;2023-04-01T05:08:44;6.50;99.90
25342;DHT22;13298;48.792;9.154;2023-04-01T05:11:15;6.50;99.90
25342;DHT22;13298;48.792;9.154;2023-04-01T05:13:43;6.40;99.90
25342;DHT22;13298;48.792;9.154;2023-04-01T05:16:10;6.40;99.90
25342;DHT22;13298;48.792;9.154;2023-04-01T05:18:38;6.40;99.90
25342;DHT22;13298;48.792;9.154;2023-04-01T05:21:04;6.40;99.90
25342;DHT22;13298;48.792;9.154;2023-04-01T05:23:32;6.40;99.90
25342;DHT22;13298;48.792;9.154;2023-04-01T05:25:58;6.40;99.90
25342;DHT22;13298;48.792;9.154;2023-04-01T05:28:27;6.40;99.90
25342;DHT22;13298;48.792;9.154;2023-04-01T05:30:53;6.40;99.90
25342;DHT22;13298;48.792;9.154;2023-04-01T05:33:19;6.40;99.90
25342;DHT22;13298;48.792;9.154;2023-04-01T05:35:44;6.60;99.90
25342;DHT22;13298;48.792;9.154;2023-04-01T05:38:10;6.70;99.90
25342;DHT22;13298;48.792;9.154;2023-04-01T05:40:36;6.80;99.90
25342;DHT22;13298;48.792;9.154;2023-04-01T05:43:01;6.90;99.90
25342;DHT22;13298;48.792;9.154;2023-04-01T05:45:27;7.00;99.90
25342;DHT22;13298;48.792;9.154;2023-04-01T05:47:53;7.10;99.90
25342;DHT22;13298;48.792;9.154;2023-04-01T05:50:19;7.20;99.90
25342;DHT22;13298;48.792;9.154;2023-04-01T05:52:45;7.30;99.90
25342;DHT22;13298;48.792;9.154;2023-04-01T05:55:11;7.40;99.90
25342;DHT22;13298;48.792;9.154;2023-04-01T05:57:36;7.50;99.90
25342;DHT22;13298;48.792;9.154;2023-04-01T06:00:03;7.60;99.90
25342;DHT22;13298;48.792;9.154;2023-04-01T06:02:29;7.70;99.90
25342;DHT22;13298;48.792;9.154;2023-04-01T06:05:13;7.80;99.90
25342;DHT22;13298;48.792;9.154;2023-04-01T06:07:39;7.90;99.90
25342;DHT22;13298;48.792;9.154;2023-04-01T06:10:18;8.00;99.90
25342;DHT22;13298;48.792;9.154;2023-04-01T06:15:50;8.30;99.90
25342;DHT22;13298;48.792;9.154;2023-04-01T06:18:51;8.40;99.90
25342;DHT22;13298;48.792;9.154;2023-04-01T06:21:43;8.50;99.90
25342;DHT22;13298;48.792;9.154;2023-04-01T06:24:57;8.60;99.90
25342;DHT22;13298;48.792;9.154;2023-04-01T06:28:03;8.60;99.90
25342;DHT22;13298;48.792;9.154;2023-04-01T06:33:36;8.80;99.90
25342;DHT22;13298;48.792;9.154;2023-04-01T06:42:24;9.00;99.90
25342;DHT22;13298;48.792;9.154;2023-04-01T06:48:46;9.20;99.90
25342;DHT22;13298;48.792;9.154;2023-04-01T06:54:16;9.20;99.90
25342;DHT22;13298;48.792;9.154;2023-04-01T06:56:50;9.20;99.90
25342;DHT22;13298;48.792;9.154;2023-04-01T06:59:22;9.20;99.90
25342;DHT22;13298;48.792;9.154;2023-04-01T07:01:54;9.30;99.90
25342;DHT22;13298;48.792;9.154;2023-04-01T07:04:28;9.40;99.90
25342;DHT22;13298;48.792;9.154;2023-04-01T07:07:09;9.40;99.90
25342;DHT22;13298;48.792;9.154;2023-04-01T07:09:53;9.50;99.90
25342;DHT22;13298;48.792;9.154;2023-04-01T07:15:09;9.70;99.90
25342;DHT22;13298;48.792;9.154;2023-04-01T07:17:41;9.70;99.90
25342;DHT22;13298;48.792;9.154;2023-04-01T07:20:30;9.70;99.90
25342;DHT22;13298;48.792;9.154;2023-04-01T07:22:59;9.70;99.90
25342;DHT22;13298;48.792;9.154;2023-04-01T07:25:39;9.70;99.90
25342;DHT22;13298;48.792;9.154;2023-04-01T07:28:12;9.70;99.90
25342;DHT22;13298;48.792;9.154;2023-04-01T07:33:33;9.60;99.90
25342;DHT22;13298;48.792;9.154;2023-04-01T07:39:33;9.50;99.90
25342;DHT22;13298;48.792;9.154;2023-04-01T07:50:30;9.60;99.90
25342;DHT22;13298;48.792;9.154;2023-04-01T07:58:44;9.90;99.90
25342;DHT22;13298;48.792;9.154;2023-04-01T08:04:21;10.20;99.90
25342;DHT22;13298;48.792;9.154;2023-04-01T08:09:43;10.40;99.90
25342;DHT22;13298;48.792;9.154;2023-04-01T08:15:53;10.50;99.90
25342;DHT22;13298;48.792;9.154;2023-04-01T08:18:38;10.60;99.90
25342;DHT22;13298;48.792;9.154;2023-04-01T08:24:23;10.60;99.90
25342;DHT22;13298;48.792;9.154;2023-04-01T08:26:59;10.80;99.90
25342;DHT22;13298;48.792;9.154;2023-04-01T08:32:44;10.80;99.90
25342;DHT22;13298;48.792;9.154;2023-04-01T08:35:30;10.90;99.90
25342;DHT22;13298;48.792;9.154;2023-04-01T08:38:01;10.90;99.90
25342;DHT22;13298;48.792;9.154;2023-04-01T08:44:04;10.70;99.90
25342;DHT22;13298;48.792;9.154;2023-04-01T08:47:24;10.40;99.90
25342;DHT22;13298;48.792;9.154;2023-04-01T08:56:12;9.60;99.90
25342;DHT22;13298;48.792;9.154;2023-04-01T09:07:55;9.70;99.90
25342;DHT22;13298;48.792;9.154;2023-04-01T09:10:32;9.90;99.90
25342;DHT22;13298;48.792;9.154;2023-04-01T09:13:41;9.90;99.90
25342;DHT22;13298;48.792;9.154;2023-04-01T09:16:29;9.90;99.90
25342;DHT22;13298;48.792;9.154;2023-04-01T09:23:02;10.10;99.90
25342;DHT22;13298;48.792;9.154;2023-04-01T09:34:35;11.00;99.90
25342;DHT22;13298;48.792;9.154;2023-04-01T09:37:26;11.30;99.90
25342;DHT22;13298;48.792;9.154;2023-04-01T09:40:21;11.40;99.90
25342;DHT22;13298;48.792;9.154;2023-04-01T09:43:13;11.40;99.90
25342;DHT22;13298;48.792;9.154;2023-04-01T09:51:52;10.90;99.90
25342;DHT22;13298;48.792;9.154;2023-04-01T09:54:52;10.70;99.90
25342;DHT22;13298;48.792;9.154;2023-04-01T09:58:10;10.70;99.90
25342;DHT22;13298;48.792;9.154;2023-04-01T10:00:54;10.70;99.90
25342;DHT22;13298;48.792;9.154;2023-04-01T10:06:44;10.90;99.90
25342;DHT22;13298;48.792;9.154;2023-04-01T10:12:57;11.00;99.90
25342;DHT22;13298;48.792;9.154;2023-04-01T10:36:35;12.10;99.90
25342;DHT22;13298;48.792;9.154;2023-04-01T10:39:31;11.90;99.90
25342;DHT22;13298;48.792;9.154;2023-04-01T10:54:44;11.40;99.90
25342;DHT22;13298;48.792;9.154;2023-04-01T11:04:01;11.30;99.90
25342;DHT22;13298;48.792;9.154;2023-04-01T11:22:30;12.60;99.90
25342;DHT22;13298;48.792;9.154;2023-04-01T11:37:14;13.00;99.90
25342;DHT22;13298;48.792;9.154;2023-04-01T11:40:14;13.10;99.90
25342;DHT22;13298;48.792;9.154;2023-04-01T11:42:58;13.20;99.90
25342;DHT22;13298;48.792;9.154;2023-04-01T11:45:39;13.30;99.90
25342;DHT22;13298;48.792;9.154;2023-04-01T11:48:25;13.20;99.90
25342;DHT22;13298;48.792;9.154;2023-04-01T11:55:13;13.50;99.90
25342;DHT22;13298;48.792;9.154;2023-04-01T12:01:01;13.40;99.90
25342;DHT22;13298;48.792;9.154;2023-04-01T12:04:11;13.10;99.90
25342;DHT22;13298;48.792;9.154;2023-04-01T12:07:19;12.70;99.90
25342;DHT22;13298;48.792;9.154;2023-04-01T12:10:20;12.70;99.90
25342;DHT22;13298;48.792;9.154;2023-04-01T12:18:28;12.50;99.90
25342;DHT22;13298;48.792;9.154;2023-04-01T12:21:15;12.40;99.90
25342;DHT22;13298;48.792;9.154;2023-04-01T12:32:17;12.30;99.90
25342;DHT22;13298;48.792;9.154;2023-04-01T12:37:52;12.30;99.90
25342;DHT22;13298;48.792;9.154;2023-04-01T12:52:10;12.80;99.90
25342;DHT22;13298;48.792;9.154;2023-04-01T12:55:18;12.70;99.90
25342;DHT22;13298;48.792;9.154;2023-04-01T12:58:35;12.70;99.90
25342;DHT22;13298;48.792;9.154;2023-04-01T13:01:35;12.80;99.90
25342;DHT22;13298;48.792;9.154;2023-04-01T13:12:58;12.70;99.90
25342;DHT22;13298;48.792;9.154;2023-04-01T13:15:54;12.60;99.90
25342;DHT22;13298;48.792;9.154;2023-04-01T13:19:03;12.50;99.90
25342;DHT22;13298;48.792;9.154;2023-04-01T13:24:20;12.10;99.90
25342;DHT22;13298;48.792;9.154;2023-04-01T13:27:18;12.00;99.90
25342;DHT22;13298;48.792;9.154;2023-04-01T13:30:20;12.20;99.90
25342;DHT22;13298;48.792;9.154;2023-04-01T13:33:04;12.30;99.90
25342;DHT22;13298;48.792;9.154;2023-04-01T13:44:46;12.60;99.90
25342;DHT22;13298;48.792;9.154;2023-04-01T13:50:48;12.50;99.90
25342;DHT22;13298;48.792;9.154;2023-04-01T14:11:35;12.40;99.90
25342;DHT22;13298;48.792;9.154;2023-04-01T14:14:53;12.40;99.90
25342;DHT22;13298;48.792;9.154;2023-04-01T14:17:46;12.20;99.90
25342;DHT22;13298;48.792;9.154;2023-04-01T14:32:49;11.70;99.90
25342;DHT22;13298;48.792;9.154;2023-04-01T14:35:38;11.50;99.90
25342;DHT22;13298;48.792;9.154;2023-04-01T14:42:08;11.00;99.90
25342;DHT22;13298;48.792;9.154;2023-04-01T14:47:53;10.90;99.90
25342;DHT22;13298;48.792;9.154;2023-04-01T14:50:27;10.90;99.90
25342;DHT22;13298;48.792;9.154;2023-04-01T14:53:16;10.90;99.90
25342;DHT22;13298;48.792;9.154;2023-04-01T14:55:55;11.00;99.90
25342;DHT22;13298;48.792;9.154;2023-04-01T15:01:37;11.20;99.90
25342;DHT22;13298;48.792;9.154;2023-04-01T15:04:37;11.20;99.90
25342;DHT22;13298;48.792;9.154;2023-04-01T15:30:34;11.50;99.90
25342;DHT22;13298;48.792;9.154;2023-04-01T15:33:42;11.50;99.90
25342;DHT22;13298;48.792;9.154;2023-04-01T15:39:41;11.60;99.90
25342;DHT22;13298;48.792;9.154;2023-04-01T15:59:34;11.10;99.90
25342;DHT22;13298;48.792;9.154;2023-04-01T16:02:41;11.10;99.90
25342;DHT22;13298;48.792;9.154;2023-04-01T16:08:18;11.00;99.90
25342;DHT22;13298;48.792;9.154;2023-04-01T16:11:19;10.90;99.90
25342;DHT22;13298;48.792;9.154;2023-04-01T16:14:11;10.90;99.90
25342;DHT22;13298;48.792;9.154;2023-04-01T16:22:12;10.70;99.90
25342;DHT22;13298;48.792;9.154;2023-04-01T16:27:40;10.50;99.90
25342;DHT22;13298;48.792;9.154;2023-04-01T16:34:10;10.40;99.90
25342;DHT22;13298;48.792;9.154;2023-04-01T16:37:17;10.30;99.90
25342;DHT22;13298;48.792;9.154;2023-04-01T16:39:53;10.30;99.90
25342;DHT22;13298;48.792;9.154;2023-04-01T16:42:40;10.30;99.90
25342;DHT22;13298;48.792;9.154;2023-04-01T16:45:36;10.30;99.90
25342;DHT22;13298;48.792;9.154;2023-04-01T16:48:29;10.30;99.90
25342;DHT22;13298;48.792;9.154;2023-04-01T16:51:16;10.30;99.90
25342;DHT22;13298;48.792;9.154;2023-04-01T16:53:52;10.40;99.90
25342;DHT22;13298;48.792;9.154;2023-04-01T16:56:38;10.40;99.90
25342;DHT22;13298;48.792;9.154;2023-04-01T17:04:45;10.40;99.90
25342;DHT22;13298;48.792;9.154;2023-04-01T17:10:42;10.40;99.90
25342;DHT22;13298;48.792;9.154;2023-04-01T17:21:57;10.20;99.90
25342;DHT22;13298;48.792;9.154;2023-04-01T17:25:17;10.10;99.90
25342;DHT22;13298;48.792;9.154;2023-04-01T17:28:12;10.10;99.90
25342;DHT22;13298;48.792;9.154;2023-04-01T17:31:13;10.00;99.90
25342;DHT22;13298;48.792;9.154;2023-04-01T17:40:06;9.90;99.90
25342;DHT22;13298;48.792;9.154;2023-04-01T17:45:58;9.80;99.90
25342;DHT22;13298;48.792;9.154;2023-04-01T17:48:40;9.80;99.90
25342;DHT22;13298;48.792;9.154;2023-04-01T17:54:37;9.70;99.90
25342;DHT22;13298;48.792;9.154;2023-04-01T17:57:39;9.70;99.90
25342;DHT22;13298;48.792;9.154;2023-04-01T18:00:34;9.70;99.90
25342;DHT22;13298;48.792;9.154;2023-04-01T18:06:16;9.50;99.90
25342;DHT22;13298;48.792;9.154;2023-04-01T18:09:29;9.40;99.90
25342;DHT22;13298;48.792;9.154;2023-04-01T18:15:16;9.20;99.90
25342;DHT22;13298;48.792;9.154;2023-04-01T18:21:13;8.90;99.90
25342;DHT22;13298;48.792;9.154;2023-04-01T18:23:50;8.70;99.90
25342;DHT22;13298;48.792;9.154;2023-04-01T18:26:31;8.70;99.90
25342;DHT22;13298;48.792;9.154;2023-04-01T18:29:13;8.70;99.90
25342;DHT22;13298;48.792;9.154;2023-04-01T18:31:51;8.60;99.90
25342;DHT22;13298;48.792;9.154;2023-04-01T18:38:31;8.50;99.90
25342;DHT22;13298;48.792;9.154;2023-04-01T18:44:46;8.40;99.90
25342;DHT22;13298;48.792;9.154;2023-04-01T18:50:38;8.10;99.90
25342;DHT22;13298;48.792;9.154;2023-04-01T18:53:35;8.00;99.90
25342;DHT22;13298;48.792;9.154;2023-04-01T18:56:14;7.90;99.90
25342;DHT22;13298;48.792;9.154;2023-04-01T18:59:10;7.70;99.90
25342;DHT22;13298;48.792;9.154;2023-04-01T19:01:51;7.60;99.90
25342;DHT22;13298;48.792;9.154;2023-04-01T19:07:51;7.40;99.90
25342;DHT22;13298;48.792;9.154;2023-04-01T19:19:14;7.00;99.90
25342;DHT22;13298;48.792;9.154;2023-04-01T19:22:20;7.00;99.90
25342;DHT22;13298;48.792;9.154;2023-04-01T19:25:21;6.90;99.90
25342;DHT22;13298;48.792;9.154;2023-04-01T19:27:53;6.90;99.90
25342;DHT22;13298;48.792;9.154;2023-04-01T19:30:51;6.80;99.90
25342;DHT22;13298;48.792;9.154;2023-04-01T19:36:58;6.90;99.90
25342;DHT22;13298;48.792;9.154;2023-04-01T19:39:50;7.00;99.90
25342;DHT22;13298;48.792;9.154;2023-04-01T19:42:54;7.00;99.90
25342;DHT22;13298;48.792;9.154;2023-04-01T19:45:53;7.00;99.90
25342;DHT22;13298;48.792;9.154;2023-04-01T20:00:15;6.90;99.90
25342;DHT22;13298;48.792;9.154;2023-04-01T20:02:56;6.90;99.90
25342;DHT22;13298;48.792;9.154;2023-04-01T20:05:49;7.00;99.90
25342;DHT22;13298;48.792;9.154;2023-04-01T20:08:27;7.10;99.90
25342;DHT22;13298;48.792;9.154;2023-04-01T20:17:29;7.40;99.90
25342;DHT22;13298;48.792;9.154;2023-04-01T20:20:15;7.40;99.90
25342;DHT22;13298;48.792;9.154;2023-04-01T20:31:19;7.70;99.90
25342;DHT22;13298;48.792;9.154;2023-04-01T20:36:49;7.80;99.90
25342;DHT22;13298;48.792;9.154;2023-04-01T20:50:58;8.00;99.90
25342;DHT22;13298;48.792;9.154;2023-04-01T20:53:53;8.00;99.90
25342;DHT22;13298;48.792;9.154;2023-04-01T20:56:41;8.00;99.90
25342;DHT22;13298;48.792;9.154;2023-04-01T21:05:23;8.00;99.90
25342;DHT22;13298;48.792;9.154;2023-04-01T21:08:21;8.00;99.90
25342;DHT22;13298;48.792;9.154;2023-04-01T21:11:17;8.00;99.90
25342;DHT22;13298;48.792;9.154;2023-04-01T21:14:01;7.90;99.90
25342;DHT22;13298;48.792;9.154;2023-04-01T21:16:43;8.00;99.90
25342;DHT22;13298;48.792;9.154;2023-04-01T21:37:14;7.70;99.90
25342;DHT22;13298;48.792;9.154;2023-04-01T21:42:47;7.70;99.90
25342;DHT22;13298;48.792;9.154;2023-04-01T21:56:56;7.40;99.90
25342;DHT22;13298;48.792;9.154;2023-04-01T22:00:24;7.30;99.90
25342;DHT22;13298;48.792;9.154;2023-04-01T22:03:07;7.30;99.90
25342;DHT22;13298;48.792;9.154;2023-04-01T22:14:01;7.00;99.90
25342;DHT22;13298;48.792;9.154;2023-04-01T22:16:37;7.00;99.90
25342;DHT22;13298;48.792;9.154;2023-04-01T22:22:20;7.10;99.90
25342;DHT22;13298;48.792;9.154;2023-04-01T22:25:00;7.10;99.90
25342;DHT22;13298;48.792;9.154;2023-04-01T22:30:28;7.20;99.90
25342;DHT22;13298;48.792;9.154;2023-04-01T22:33:14;7.30;99.90
25342;DHT22;13298;48.792;9.154;2023-04-01T22:36:13;7.30;99.90
25342;DHT22;13298;48.792;9.154;2023-04-01T22:39:02;7.30;99.90
25342;DHT22;13298;48.792;9.154;2023-04-01T22:41:42;7.40;99.90
25342;DHT22;13298;48.792;9.154;2023-04-01T22:45:05;7.50;99.90
25342;DHT22;13298;48.792;9.154;2023-04-01T22:50:32;7.50;99.90
25342;DHT22;13298;48.792;9.154;2023-04-01T22:55:38;7.50;99.90
25342;DHT22;13298;48.792;9.154;2023-04-01T22:58:14;7.50;99.90
25342;DHT22;13298;48.792;9.154;2023-04-01T23:00:49;7.50;99.90
25342;DHT22;13298;48.792;9.154;2023-04-01T23:03:30;7.40;99.90
25342;DHT22;13298;48.792;9.154;2023-04-01T23:05:59;7.40;99.90
25342;DHT22;13298;48.792;9.154;2023-04-01T23:08:51;7.40;99.90
25342;DHT22;13298;48.792;9.154;2023-04-01T23:14:37;7.30;99.90
25342;DHT22;13298;48.792;9.154;2023-04-01T23:17:30;7.40;99.90
25342;DHT22;13298;48.792;9.154;2023-04-01T23:20:12;7.40;99.90
25342;DHT22;13298;48.792;9.154;2023-04-01T23:28:51;7.40;99.90
25342;DHT22;13298;48.792;9.154;2023-04-01T23:31:27;7.40;99.90
25342;DHT22;13298;48.792;9.154;2023-04-01T23:33:56;7.40;99.90
25342;DHT22;13298;48.792;9.154;2023-04-01T23:36:24;7.40;99.90
25342;DHT22;13298;48.792;9.154;2023-04-01T23:38:51;7.40;99.90
25342;DHT22;13298;48.792;9.154;2023-04-01T23:41:27;7.40;99.90
25342;DHT22;13298;48.792;9.154;2023-04-01T23:44:04;7.40;99.90
25342;DHT22;13298;48.792;9.154;2023-04-01T23:46:33;7.30;99.90
25342;DHT22;13298;48.792;9.154;2023-04-01T23:49:01;7.30;99.90
25342;DHT22;13298;48.792;9.154;2023-04-01T23:51:35;7.30;99.90
25342;DHT22;13298;48.792;9.154;2023-04-01T23:54:14;7.30;99.90
25342;DHT22;13298;48.792;9.154;2023-04-01T23:56:53;7.30;99.90
25342;DHT22;13298;48.792;9.154;2023-04-01T23:59:30;7.30;99.90
